Time;durP1;ratioP1;P1;durP2;ratioP2;P2;SDS_P1;SDS_P2;PMS_P1;PMS_P2;Temp;Humidity;BMP_temperature;BMP_pressure;BME280_temperature;BME280_humidity;BME280_pressure;Samples;Min_cycle;Max_cycle;Signal;HPM_P1;HPM_P2
2023/10/14 00:05:22;;;;;;;2.97;1.30;;;;;;;;;;20625341;28;20238;-77
2023/10/14 00:15:24;;;;;;;4.03;1.60;;;;;;;;;;20656884;28;20355;-77
2023/10/14 00:25:25;;;;;;;5.00;1.70;;;;;;;;;;20645711;28;20217;-77
2023/10/14 00:35:27;;;;;;;5.10;1.95;;;;;;;;;;20627762;28;20223;-77
2023/10/14 00:45:31;;;;;;;2.85;1.60;;;;;;;;;;20642519;28;20713;-77
2023/10/14 01:05:46;;;;;;;3.72;1.50;;;;;;;;;;20655986;28;20224;-77
2023/10/14 01:15:57;;;;;;;7.03;1.98;;;;;;;;;;20651136;28;20299;-77
2023/10/14 01:26:03;;;;;;;3.50;1.50;;;;;;;;;;20629003;28;20223;-78
2023/10/14 01:36:08;;;;;;;5.78;2.10;;;;;;;;;;20615938;28;20263;-79
2023/10/14 01:46:10;;;;;;;3.67;1.60;;;;;;;;;;20644783;28;20574;-78
2023/10/14 01:56:13;;;;;;;3.17;1.50;;;;;;;;;;20641237;28;20630;-78
2023/10/14 02:06:20;;;;;;;12.73;2.65;;;;;;;;;;20643554;28;20245;-78
2023/10/14 02:16:29;;;;;;;3.43;1.60;;;;;;;;;;20627003;28;20243;-78
2023/10/14 02:26:32;;;;;;;6.65;1.90;;;;;;;;;;20660792;28;20701;-78
2023/10/14 02:36:48;;;;;;;2.30;1.43;;;;;;;;;;20631474;28;20223;-77
2023/10/14 02:46:54;;;;;;;3.47;2.13;;;;;;;;;;20660336;28;20226;-76
2023/10/14 02:56:59;;;;;;;2.67;1.42;;;22.00;99.90;;;;;;20661624;28;20343;-77
2023/10/14 03:07:02;;;;;;;3.15;1.25;;;;;;;;;;20673304;28;20279;-78
2023/10/14 03:17:04;;;;;;;5.70;2.10;;;;;;;;;;20667761;28;20312;-79
2023/10/14 03:27:07;;;;;;;4.25;1.83;;;;;;;;;;20642721;28;20708;-77
2023/10/14 03:37:23;;;;;;;6.70;1.83;;;;;;;;;;20661136;28;20605;-78
2023/10/14 03:47:34;;;;;;;1.77;1.00;;;;;;;;;;20651586;28;20642;-79
2023/10/14 03:57:37;;;;;;;2.22;1.10;;;;;;;;;;20653093;28;20221;-78
2023/10/14 04:07:40;;;;;;;3.63;1.13;;;;;;;;;;20654919;23;20618;-68
2023/10/14 04:17:52;;;;;;;4.37;1.20;;;;;;;;;;20516688;28;20483;-67
2023/10/14 04:37:57;;;;;;;4.37;0.90;;;;;;;;;;20496705;28;20234;-67
2023/10/14 04:47:59;;;;;;;1.57;0.87;;;21.10;99.90;;;;;;20463788;28;20233;-66
2023/10/14 04:58:11;;;;;;;3.07;0.97;;;;;;;;;;20483587;28;20268;-69
2023/10/14 05:08:16;;;;;;;1.70;0.80;;;;;;;;;;20521063;28;20278;-69
2023/10/14 05:18:27;;;;;;;1.43;0.50;;;;;;;;;;20462914;28;20768;-69
2023/10/14 05:28:29;;;;;;;2.57;0.80;;;;;;;;;;20463783;29;20227;-69
2023/10/14 05:38:32;;;;;;;1.03;0.50;;;20.80;99.90;;;;;;20491163;28;20689;-69
2023/10/14 05:48:33;;;;;;;1.40;0.57;;;;;;;;;;20467020;28;20262;-69
2023/10/14 05:58:38;;;;;;;3.90;0.53;;;20.80;99.90;;;;;;20458362;28;20782;-69
2023/10/14 06:08:40;;;;;;;0.70;0.50;;;;;;;;;;20480628;28;20567;-68
2023/10/14 06:18:47;;;;;;;1.53;0.53;;;;;;;;;;20495266;28;20588;-68
2023/10/14 06:28:55;;;;;;;1.53;0.50;;;;;;;;;;20491945;28;20229;-68
2023/10/14 06:39:12;;;;;;;0.60;0.40;;;;;;;;;;20512119;28;20707;-69
2023/10/14 06:49:16;;;;;;;0.43;0.30;;;;;;;;;;20531948;28;20283;-66
2023/10/14 06:59:18;;;;;;;0.60;0.30;;;;;;;;;;20511290;28;20237;-67
2023/10/14 07:09:23;;;;;;;0.97;0.30;;;;;;;;;;20461190;28;20232;-65
2023/10/14 07:19:25;;;;;;;1.20;0.40;;;;;;;;;;20456461;28;20259;-65
2023/10/14 07:29:27;;;;;;;0.93;0.27;;;;;;;;;;20465707;28;20232;-65
2023/10/14 07:39:28;;;;;;;0.17;0.17;;;;;;;;;;20445748;28;20573;-65
2023/10/14 07:49:30;;;;;;;0.70;0.20;;;;;;;;;;20473781;28;20236;-65
2023/10/14 07:59:34;;;;;;;0.20;0.20;;;;;;;;;;20475793;28;20510;-65
2023/10/14 08:09:39;;;;;;;0.40;0.27;;;;;;;;;;20494262;28;20754;-66
2023/10/14 08:19:41;;;;;;;0.50;0.20;;;;;;;;;;20461044;29;20280;-66
2023/10/14 08:29:42;;;;;;;0.33;0.27;;;;;;;;;;20458510;28;20231;-65
2023/10/14 08:39:45;;;;;;;0.10;0.10;;;;;;;;;;20477032;28;20618;-65
2023/10/14 08:49:46;;;;;;;0.10;0.10;;;;;;;;;;20472412;28;20290;-65
2023/10/14 08:59:49;;;;;;;0.20;0.20;;;;;;;;;;20450681;29;20220;-65
2023/10/14 09:09:53;;;;;;;0.30;0.20;;;;;;;;;;20439915;28;20239;-65
2023/10/14 09:19:56;;;;;;;0.20;0.20;;;;;;;;;;20495099;29;20367;-65
2023/10/14 09:29:58;;;;;;;1.90;1.03;;;;;;;;;;20485019;29;20232;-66
2023/10/14 09:40:06;;;;;;;0.20;0.20;;;;;;;;;;20454538;28;20263;-66
2023/10/14 09:50:13;;;;;;;0.33;0.20;;;;;;;;;;20532145;28;20257;-65
2023/10/14 10:00:16;;;;;;;0.20;0.20;;;;;;;;;;20521332;28;20240;-68
2023/10/14 10:10:20;;;;;;;0.20;0.20;;;;;;;;;;20480379;28;20290;-67
2023/10/14 10:20:29;;;;;;;0.30;0.20;;;;;;;;;;20532316;28;20232;-67
2023/10/14 10:30:46;;;;;;;0.67;0.20;;;;;;;;;;20544121;28;20228;-68
2023/10/14 10:41:09;;;;;;;0.20;0.20;;;;;;;;;;20633175;23;20237;-78
2023/10/14 10:51:11;;;;;;;0.13;0.13;;;;;;;;;;20554085;28;20239;-80
2023/10/14 11:01:14;;;;;;;0.20;0.20;;;;;;;;;;20509846;28;20297;-77
2023/10/14 11:11:16;;;;;;;0.70;0.30;;;;;;;;;;20532454;28;20255;-76
2023/10/14 11:21:19;;;;;;;0.33;0.20;;;;;;;;;;20527044;28;20203;-78
2023/10/14 11:31:21;;;;;;;0.55;0.30;;;;;;;;;;20528732;28;20280;-77
2023/10/14 11:41:22;;;;;;;0.52;0.22;;;;;;;;;;20544635;28;20262;-78
2023/10/14 11:51:25;;;;;;;1.83;0.47;;;;;;;;;;20556912;28;20693;-78
2023/10/14 12:01:32;;;;;;;2.20;0.47;;;;;;;;;;20556600;28;20223;-78
2023/10/14 12:11:44;;;;;;;1.00;0.40;;;;;;;;;;20565703;28;20701;-78
2023/10/14 12:21:45;;;;;;;1.03;0.50;;;;;;;;;;20515496;28;20262;-76
2023/10/14 12:31:47;;;;;;;2.22;0.68;;;;;;;;;;20476987;29;20227;-75
2023/10/14 12:41:53;;;;;;;1.33;0.55;;;;;;;;;;20485454;28;20238;-75
2023/10/14 12:52:01;;;;;;;0.68;0.40;;;;;;;;;;20490618;28;20301;-76
2023/10/14 13:02:03;;;;;;;1.83;0.73;;;;;;;;;;20491320;28;20751;-76
2023/10/14 13:12:15;;;;;;;2.92;0.60;;;;;;;;;;20492396;28;20231;-76
2023/10/14 13:22:17;;;;;;;1.65;0.50;;;;;;;;;;20485048;28;20293;-76
2023/10/14 13:32:24;;;;;;;2.67;0.57;;;;;;;;;;20489783;28;20227;-76
2023/10/14 13:42:26;;;;;;;0.77;0.50;;;;;;;;;;20488891;28;20221;-74
2023/10/14 13:52:27;;;;;;;1.65;0.45;;;;;;;;;;20492394;28;20219;-74
2023/10/14 14:02:29;;;;;;;0.93;0.47;;;;;;;;;;20496674;28;20571;-76
2023/10/14 14:12:32;;;;;;;1.38;0.52;;;21.90;97.40;;;;;;20483993;28;20241;-76
2023/10/14 14:22:35;;;;;;;1.20;0.50;;;;;;;;;;20495863;28;20215;-76
2023/10/14 14:32:38;;;;;;;1.43;0.50;;;;;;;;;;20505355;28;20662;-73
2023/10/14 14:42:43;;;;;;;1.80;0.50;;;;;;;;;;20498610;29;20284;-76
2023/10/14 14:52:45;;;;;;;0.57;0.43;;;;;;;;;;20499734;28;20303;-75
2023/10/14 15:02:46;;;;;;;0.50;0.37;;;;;;;;;;20497664;28;20212;-76
2023/10/14 15:12:49;;;;;;;0.93;0.53;;;20.10;99.90;;;;;;20493132;28;20272;-76
2023/10/14 15:22:51;;;;;;;1.53;0.60;;;;;;;;;;20496943;28;20232;-76
2023/10/14 15:32:53;;;;;;;1.23;0.47;;;;;;;;;;20494640;28;20227;-75
2023/10/14 15:42:57;;;;;;;0.87;0.40;;;;;;;;;;20493836;28;20297;-76
2023/10/14 15:52:59;;;;;;;0.93;0.47;;;;;;;;;;20494651;28;20248;-76
2023/10/14 16:03:08;;;;;;;0.43;0.30;;;19.40;99.90;;;;;;20492067;28;20249;-76
2023/10/14 16:13:10;;;;;;;0.70;0.40;;;;;;;;;;20488840;28;20223;-76
2023/10/14 16:23:12;;;;;;;2.00;0.60;;;;;;;;;;20491401;28;20778;-76
2023/10/14 16:33:13;;;;;;;1.83;0.40;;;;;;;;;;20490759;29;20223;-76
2023/10/14 16:43:15;;;;;;;1.67;0.60;;;;;;;;;;20553927;23;20273;-64
2023/10/14 16:53:17;;;;;;;1.50;0.50;;;;;;;;;;20533864;28;20304;-66
2023/10/14 17:03:22;;;;;;;1.60;0.70;;;;;;;;;;20526333;28;20301;-66
2023/10/14 17:13:24;;;;;;;1.53;0.40;;;;;;;;;;20526928;28;20227;-66
2023/10/14 17:23:26;;;;;;;1.00;0.50;;;;;;;;;;20537807;28;20706;-66
2023/10/14 17:33:28;;;;;;;0.93;0.40;;;;;;;;;;20520699;28;20291;-65
2023/10/14 17:54:26;;;;;;;1.37;0.70;;;;;;;;;;18318209;23;20283;-69
2023/10/14 18:04:28;;;;;;;2.30;0.57;;;;;;;;;;20552556;23;1172309;-66
2023/10/14 18:14:31;;;;;;;2.43;0.50;;;;;;;;;;19315658;30;20300;-66
2023/10/14 18:24:33;;;;;;;0.77;0.40;;;;;;;;;;19347368;30;20244;-66
2023/10/14 18:34:35;;;;;;;5.93;0.70;;;;;;;;;;19359516;30;20259;-66
2023/10/14 18:44:37;;;;;;;2.73;0.73;;;;;;;;;;19352287;30;20314;-66
2023/10/14 18:54:39;;;;;;;1.30;0.60;;;;;;;;;;19320342;30;20237;-66
2023/10/14 19:04:42;;;;;;;1.47;0.50;;;;;;;;;;19351350;30;20258;-67
2023/10/14 19:14:44;;;;;;;1.20;0.40;;;;;;;;;;19631023;30;1128803;-66
2023/10/14 19:24:46;;;;;;;0.70;0.40;;;;;;;;;;19745618;29;20245;-66
2023/10/14 19:34:50;;;;;;;1.27;0.70;;;;;;;;;;19741088;29;20708;-66
2023/10/14 19:44:52;;;;;;;2.20;0.90;;;;;;;;;;19749139;29;20232;-66
2023/10/14 19:54:54;;;;;;;2.73;0.73;;;;;;;;;;19749207;29;20232;-66
2023/10/14 20:05:00;;;;;;;1.10;0.30;;;;;;;;;;19754072;29;20719;-66
2023/10/14 20:15:02;;;;;;;2.73;0.47;;;;;;;;;;20042550;29;20390;-66
2023/10/14 20:25:05;;;;;;;0.50;0.40;;;;;;;;;;20062848;29;20240;-66
2023/10/14 20:35:07;;;;;;;1.50;0.57;;;;;;;;;;20048527;29;20944;-67
2023/10/14 20:45:15;;;;;;;0.80;0.40;;;;;;;;;;20087248;29;20549;-67
2023/10/14 20:55:22;;;;;;;0.83;0.50;;;;;;;;;;20092493;29;20221;-66
2023/10/14 21:05:31;;;;;;;1.20;0.70;;;;;;;;;;20071991;29;20608;-67
2023/10/14 21:15:33;;;;;;;2.20;0.50;;;;;;;;;;20423145;29;20225;-67
2023/10/14 21:25:41;;;;;;;2.77;0.70;;;;;;;;;;20459859;29;20287;-67
2023/10/14 21:35:46;;;;;;;1.80;0.70;;;;;;;;;;20454255;29;20213;-64
2023/10/14 21:45:51;;;;;;;1.07;0.53;;;;;;;;;;20451601;29;20704;-66
2023/10/14 21:55:56;;;;;;;2.47;0.90;;;15.30;99.90;;;;;;20448935;29;20280;-65
2023/10/14 22:05:58;;;;;;;1.50;0.50;;;;;;;;;;20485662;28;20274;-65
2023/10/14 22:16:00;;;;;;;0.67;0.40;;;;;;;;;;20501490;28;20225;-66
2023/10/14 22:26:07;;;;;;;0.43;0.30;;;;;;;;;;20519255;28;20288;-66
2023/10/14 22:36:11;;;;;;;0.90;0.53;;;14.90;99.90;;;;;;20529582;28;20269;-66
2023/10/14 22:46:14;;;;;;;1.83;0.70;;;;;;;;;;20513918;28;20280;-66
2023/10/14 22:56:19;;;;;;;1.33;0.70;;;;;;;;;;20521121;28;20295;-66
2023/10/14 23:06:22;;;;;;;1.10;0.33;;;;;;;;;;20466873;28;20229;-67
2023/10/14 23:16:25;;;;;;;1.27;0.50;;;;;;;;;;20538334;28;20676;-66
2023/10/14 23:26:26;;;;;;;1.57;0.50;;;;;;;;;;20515698;28;20713;-66
2023/10/14 23:36:29;;;;;;;0.77;0.50;;;;;;;;;;20531630;28;20300;-67
2023/10/14 23:46:30;;;;;;;0.87;0.40;;;;;;;;;;20532150;28;20759;-67
2023/10/14 23:56:32;;;;;;;0.80;0.40;;;;;;;;;;20498233;28;20268;-68
